sensor_id;sensor_type;location;lat;lon;timestamp;P1;P2;P0
75946;PMS5003;64628;50.104;14.614;2023-10-31T00:00:18;23;22;
75946;PMS5003;64628;50.104;14.614;2023-10-31T00:02:43;24;24;
75946;PMS5003;64628;50.104;14.614;2023-10-31T00:05:09;22;20;
75946;PMS5003;64628;50.104;14.614;2023-10-31T00:07:34;24;23;
75946;PMS5003;64628;50.104;14.614;2023-10-31T00:10:00;25;24;
75946;PMS5003;64628;50.104;14.614;2023-10-31T00:12:25;24;24;
75946;PMS5003;64628;50.104;14.614;2023-10-31T00:14:51;23;20;
75946;PMS5003;64628;50.104;14.614;2023-10-31T00:17:17;20;19;
75946;PMS5003;64628;50.104;14.614;2023-10-31T00:19:43;21;19;
75946;PMS5003;64628;50.104;14.614;2023-10-31T00:22:08;25;23;
75946;PMS5003;64628;50.104;14.614;2023-10-31T00:24:33;22;22;
75946;PMS5003;64628;50.104;14.614;2023-10-31T00:26:58;24;21;
75946;PMS5003;64628;50.104;14.614;2023-10-31T00:29:24;22;21;
75946;PMS5003;64628;50.104;14.614;2023-10-31T00:31:49;24;22;
75946;PMS5003;64628;50.104;14.614;2023-10-31T00:34:15;16;16;
75946;PMS5003;64628;50.104;14.614;2023-10-31T00:36:40;17;16;
75946;PMS5003;64628;50.104;14.614;2023-10-31T00:39:05;20;18;
75946;PMS5003;64628;50.104;14.614;2023-10-31T00:41:31;19;16;
75946;PMS5003;64628;50.104;14.614;2023-10-31T00:43:57;20;16;
75946;PMS5003;64628;50.104;14.614;2023-10-31T00:46:22;22;20;
75946;PMS5003;64628;50.104;14.614;2023-10-31T00:48:47;16;16;
75946;PMS5003;64628;50.104;14.614;2023-10-31T00:51:12;24;20;
75946;PMS5003;64628;50.104;14.614;2023-10-31T00:53:38;14;14;
75946;PMS5003;64628;50.104;14.614;2023-10-31T00:56:04;15;15;
75946;PMS5003;64628;50.104;14.614;2023-10-31T00:58:29;17;15;
75946;PMS5003;64628;50.104;14.614;2023-10-31T01:00:55;23;17;
75946;PMS5003;64628;50.104;14.614;2023-10-31T01:03:21;22;20;
75946;PMS5003;64628;50.104;14.614;2023-10-31T01:05:46;20;20;
75946;PMS5003;64628;50.104;14.614;2023-10-31T01:08:12;24;22;
75946;PMS5003;64628;50.104;14.614;2023-10-31T01:10:38;28;26;
75946;PMS5003;64628;50.104;14.614;2023-10-31T01:13:03;31;27;
75946;PMS5003;64628;50.104;14.614;2023-10-31T01:15:28;29;27;
75946;PMS5003;64628;50.104;14.614;2023-10-31T01:17:53;30;27;
75946;PMS5003;64628;50.104;14.614;2023-10-31T01:20:19;27;23;
75946;PMS5003;64628;50.104;14.614;2023-10-31T01:22:44;28;23;
75946;PMS5003;64628;50.104;14.614;2023-10-31T01:25:10;23;21;
75946;PMS5003;64628;50.104;14.614;2023-10-31T01:27:36;29;28;
75946;PMS5003;64628;50.104;14.614;2023-10-31T01:30:02;27;24;
75946;PMS5003;64628;50.104;14.614;2023-10-31T01:32:27;28;26;
75946;PMS5003;64628;50.104;14.614;2023-10-31T01:34:53;29;27;
75946;PMS5003;64628;50.104;14.614;2023-10-31T01:37:19;21;21;
75946;PMS5003;64628;50.104;14.614;2023-10-31T01:39:44;26;25;
75946;PMS5003;64628;50.104;14.614;2023-10-31T01:42:10;23;23;
75946;PMS5003;64628;50.104;14.614;2023-10-31T01:44:36;24;23;
75946;PMS5003;64628;50.104;14.614;2023-10-31T01:47:03;26;22;
75946;PMS5003;64628;50.104;14.614;2023-10-31T01:49:26;24;20;
75946;PMS5003;64628;50.104;14.614;2023-10-31T01:51:51;33;30;
75946;PMS5003;64628;50.104;14.614;2023-10-31T01:54:17;24;21;
75946;PMS5003;64628;50.104;14.614;2023-10-31T01:56:42;31;27;
75946;PMS5003;64628;50.104;14.614;2023-10-31T01:59:08;27;25;
75946;PMS5003;64628;50.104;14.614;2023-10-31T02:01:34;27;27;
75946;PMS5003;64628;50.104;14.614;2023-10-31T02:03:58;34;29;
75946;PMS5003;64628;50.104;14.614;2023-10-31T02:06:24;32;25;
75946;PMS5003;64628;50.104;14.614;2023-10-31T02:08:50;30;25;
75946;PMS5003;64628;50.104;14.614;2023-10-31T02:11:15;33;32;
75946;PMS5003;64628;50.104;14.614;2023-10-31T02:13:41;34;28;
75946;PMS5003;64628;50.104;14.614;2023-10-31T02:16:06;24;23;
75946;PMS5003;64628;50.104;14.614;2023-10-31T02:18:31;30;25;
75946;PMS5003;64628;50.104;14.614;2023-10-31T02:20:57;30;26;
75946;PMS5003;64628;50.104;14.614;2023-10-31T02:23:23;30;27;
75946;PMS5003;64628;50.104;14.614;2023-10-31T02:25:48;35;33;
75946;PMS5003;64628;50.104;14.614;2023-10-31T02:28:14;39;36;
75946;PMS5003;64628;50.104;14.614;2023-10-31T02:30:40;32;27;
75946;PMS5003;64628;50.104;14.614;2023-10-31T02:33:05;36;32;
75946;PMS5003;64628;50.104;14.614;2023-10-31T02:35:31;30;27;
75946;PMS5003;64628;50.104;14.614;2023-10-31T02:37:56;38;31;
75946;PMS5003;64628;50.104;14.614;2023-10-31T02:40:22;35;34;
75946;PMS5003;64628;50.104;14.614;2023-10-31T02:42:47;38;31;
75946;PMS5003;64628;50.104;14.614;2023-10-31T02:45:13;39;32;
75946;PMS5003;64628;50.104;14.614;2023-10-31T02:47:38;37;35;
75946;PMS5003;64628;50.104;14.614;2023-10-31T02:50:03;60;55;
75946;PMS5003;64628;50.104;14.614;2023-10-31T02:52:29;39;36;
75946;PMS5003;64628;50.104;14.614;2023-10-31T02:54:54;38;36;
75946;PMS5003;64628;50.104;14.614;2023-10-31T02:57:20;41;38;
75946;PMS5003;64628;50.104;14.614;2023-10-31T02:59:45;36;29;
75946;PMS5003;64628;50.104;14.614;2023-10-31T03:02:11;37;29;
75946;PMS5003;64628;50.104;14.614;2023-10-31T03:04:36;30;28;
75946;PMS5003;64628;50.104;14.614;2023-10-31T03:07:02;45;43;
75946;PMS5003;64628;50.104;14.614;2023-10-31T03:09:28;24;23;
75946;PMS5003;64628;50.104;14.614;2023-10-31T03:11:52;29;24;
75946;PMS5003;64628;50.104;14.614;2023-10-31T03:14:18;27;25;
75946;PMS5003;64628;50.104;14.614;2023-10-31T03:16:43;25;22;
75946;PMS5003;64628;50.104;14.614;2023-10-31T03:19:08;19;18;
75946;PMS5003;64628;50.104;14.614;2023-10-31T03:21:34;27;27;
75946;PMS5003;64628;50.104;14.614;2023-10-31T03:23:59;28;22;
75946;PMS5003;64628;50.104;14.614;2023-10-31T03:26:25;29;20;
75946;PMS5003;64628;50.104;14.614;2023-10-31T03:28:50;21;21;
75946;PMS5003;64628;50.104;14.614;2023-10-31T03:31:16;27;27;
75946;PMS5003;64628;50.104;14.614;2023-10-31T03:33:42;27;26;
75946;PMS5003;64628;50.104;14.614;2023-10-31T03:36:07;31;27;
75946;PMS5003;64628;50.104;14.614;2023-10-31T03:38:32;21;18;
75946;PMS5003;64628;50.104;14.614;2023-10-31T03:40:57;25;22;
75946;PMS5003;64628;50.104;14.614;2023-10-31T03:43:23;27;25;
75946;PMS5003;64628;50.104;14.614;2023-10-31T03:45:48;26;25;
75946;PMS5003;64628;50.104;14.614;2023-10-31T03:48:15;33;28;
75946;PMS5003;64628;50.104;14.614;2023-10-31T03:50:40;26;22;
75946;PMS5003;64628;50.104;14.614;2023-10-31T03:53:05;28;21;
75946;PMS5003;64628;50.104;14.614;2023-10-31T03:55:30;32;28;
75946;PMS5003;64628;50.104;14.614;2023-10-31T03:57:57;31;27;
75946;PMS5003;64628;50.104;14.614;2023-10-31T04:00:22;29;24;
75946;PMS5003;64628;50.104;14.614;2023-10-31T04:02:47;25;20;
75946;PMS5003;64628;50.104;14.614;2023-10-31T04:05:13;25;22;
75946;PMS5003;64628;50.104;14.614;2023-10-31T04:07:39;28;26;
75946;PMS5003;64628;50.104;14.614;2023-10-31T04:10:04;26;25;
75946;PMS5003;64628;50.104;14.614;2023-10-31T04:12:30;31;22;
75946;PMS5003;64628;50.104;14.614;2023-10-31T04:14:55;25;21;
75946;PMS5003;64628;50.104;14.614;2023-10-31T04:17:21;31;31;
75946;PMS5003;64628;50.104;14.614;2023-10-31T04:19:46;27;24;
75946;PMS5003;64628;50.104;14.614;2023-10-31T04:22:11;23;20;
75946;PMS5003;64628;50.104;14.614;2023-10-31T04:24:37;22;19;
75946;PMS5003;64628;50.104;14.614;2023-10-31T04:27:02;18;18;
75946;PMS5003;64628;50.104;14.614;2023-10-31T04:29:27;30;26;
75946;PMS5003;64628;50.104;14.614;2023-10-31T04:31:53;19;17;
75946;PMS5003;64628;50.104;14.614;2023-10-31T04:34:18;30;27;
75946;PMS5003;64628;50.104;14.614;2023-10-31T04:36:43;17;17;
75946;PMS5003;64628;50.104;14.614;2023-10-31T04:39:09;20;19;
75946;PMS5003;64628;50.104;14.614;2023-10-31T04:41:35;19;19;
75946;PMS5003;64628;50.104;14.614;2023-10-31T04:44:01;20;18;
75946;PMS5003;64628;50.104;14.614;2023-10-31T04:46:26;16;16;
75946;PMS5003;64628;50.104;14.614;2023-10-31T04:48:52;18;18;
75946;PMS5003;64628;50.104;14.614;2023-10-31T04:51:17;17;17;
75946;PMS5003;64628;50.104;14.614;2023-10-31T04:53:43;13;13;
75946;PMS5003;64628;50.104;14.614;2023-10-31T04:56:11;13;13;
75946;PMS5003;64628;50.104;14.614;2023-10-31T04:58:34;16;16;
75946;PMS5003;64628;50.104;14.614;2023-10-31T05:00:59;16;15;
75946;PMS5003;64628;50.104;14.614;2023-10-31T05:03:24;19;17;
75946;PMS5003;64628;50.104;14.614;2023-10-31T05:05:49;13;13;
75946;PMS5003;64628;50.104;14.614;2023-10-31T05:08:15;17;15;
75946;PMS5003;64628;50.104;14.614;2023-10-31T05:10:40;13;13;
75946;PMS5003;64628;50.104;14.614;2023-10-31T05:13:06;16;12;
75946;PMS5003;64628;50.104;14.614;2023-10-31T05:15:32;15;15;
75946;PMS5003;64628;50.104;14.614;2023-10-31T05:17:57;12;11;
75946;PMS5003;64628;50.104;14.614;2023-10-31T05:20:22;11;11;
75946;PMS5003;64628;50.104;14.614;2023-10-31T05:22:48;10;10;
75946;PMS5003;64628;50.104;14.614;2023-10-31T05:25:13;12;9;
75946;PMS5003;64628;50.104;14.614;2023-10-31T05:27:38;11;11;
75946;PMS5003;64628;50.104;14.614;2023-10-31T05:30:04;10;10;
75946;PMS5003;64628;50.104;14.614;2023-10-31T05:32:29;9;8;
75946;PMS5003;64628;50.104;14.614;2023-10-31T05:34:54;9;9;
75946;PMS5003;64628;50.104;14.614;2023-10-31T05:37:19;11;9;
75946;PMS5003;64628;50.104;14.614;2023-10-31T05:39:44;5;5;
75946;PMS5003;64628;50.104;14.614;2023-10-31T05:42:10;10;8;
75946;PMS5003;64628;50.104;14.614;2023-10-31T05:44:35;6;6;
75946;PMS5003;64628;50.104;14.614;2023-10-31T05:47:00;8;8;
75946;PMS5003;64628;50.104;14.614;2023-10-31T05:49:25;8;5;
75946;PMS5003;64628;50.104;14.614;2023-10-31T05:51:51;4;4;
75946;PMS5003;64628;50.104;14.614;2023-10-31T05:54:16;4;4;
75946;PMS5003;64628;50.104;14.614;2023-10-31T05:56:41;3;3;
75946;PMS5003;64628;50.104;14.614;2023-10-31T05:59:06;5;5;
75946;PMS5003;64628;50.104;14.614;2023-10-31T06:01:32;6;5;
75946;PMS5003;64628;50.104;14.614;2023-10-31T06:03:57;3;3;
75946;PMS5003;64628;50.104;14.614;2023-10-31T06:06:23;3;3;
75946;PMS5003;64628;50.104;14.614;2023-10-31T06:08:48;3;3;
75946;PMS5003;64628;50.104;14.614;2023-10-31T06:11:13;3;3;
75946;PMS5003;64628;50.104;14.614;2023-10-31T06:13:38;4;4;
75946;PMS5003;64628;50.104;14.614;2023-10-31T06:16:04;2;2;
75946;PMS5003;64628;50.104;14.614;2023-10-31T06:18:30;3;3;
75946;PMS5003;64628;50.104;14.614;2023-10-31T06:20:55;3;3;
75946;PMS5003;64628;50.104;14.614;2023-10-31T06:23:20;2;2;
75946;PMS5003;64628;50.104;14.614;2023-10-31T06:25:45;2;2;
75946;PMS5003;64628;50.104;14.614;2023-10-31T06:28:10;5;4;
75946;PMS5003;64628;50.104;14.614;2023-10-31T06:30:36;1;1;
75946;PMS5003;64628;50.104;14.614;2023-10-31T06:33:01;2;2;
75946;PMS5003;64628;50.104;14.614;2023-10-31T06:35:26;1;1;
75946;PMS5003;64628;50.104;14.614;2023-10-31T06:37:53;4;2;
75946;PMS5003;64628;50.104;14.614;2023-10-31T06:40:17;3;2;
75946;PMS5003;64628;50.104;14.614;2023-10-31T06:42:42;1;1;
75946;PMS5003;64628;50.104;14.614;2023-10-31T06:45:08;1;1;
75946;PMS5003;64628;50.104;14.614;2023-10-31T06:47:33;1;1;
75946;PMS5003;64628;50.104;14.614;2023-10-31T06:49:58;1;1;
75946;PMS5003;64628;50.104;14.614;2023-10-31T06:52:23;3;1;
75946;PMS5003;64628;50.104;14.614;2023-10-31T06:54:49;2;2;
75946;PMS5003;64628;50.104;14.614;2023-10-31T06:57:14;2;2;
75946;PMS5003;64628;50.104;14.614;2023-10-31T06:59:39;1;1;
75946;PMS5003;64628;50.104;14.614;2023-10-31T07:02:04;1;1;
75946;PMS5003;64628;50.104;14.614;2023-10-31T07:04:30;2;2;
75946;PMS5003;64628;50.104;14.614;2023-10-31T07:06:55;1;1;
75946;PMS5003;64628;50.104;14.614;2023-10-31T07:09:20;3;3;
75946;PMS5003;64628;50.104;14.614;2023-10-31T07:11:45;3;1;
75946;PMS5003;64628;50.104;14.614;2023-10-31T07:14:11;2;2;
75946;PMS5003;64628;50.104;14.614;2023-10-31T07:16:36;2;2;
75946;PMS5003;64628;50.104;14.614;2023-10-31T07:19:01;2;2;
75946;PMS5003;64628;50.104;14.614;2023-10-31T07:21:26;2;2;
75946;PMS5003;64628;50.104;14.614;2023-10-31T07:23:51;4;2;
75946;PMS5003;64628;50.104;14.614;2023-10-31T07:26:17;1;1;
75946;PMS5003;64628;50.104;14.614;2023-10-31T07:28:42;3;2;
75946;PMS5003;64628;50.104;14.614;2023-10-31T07:31:07;3;3;
75946;PMS5003;64628;50.104;14.614;2023-10-31T07:33:32;2;2;
75946;PMS5003;64628;50.104;14.614;2023-10-31T07:35:58;1;1;
75946;PMS5003;64628;50.104;14.614;2023-10-31T07:38:23;2;2;
75946;PMS5003;64628;50.104;14.614;2023-10-31T07:40:48;1;1;
75946;PMS5003;64628;50.104;14.614;2023-10-31T07:43:14;4;3;
75946;PMS5003;64628;50.104;14.614;2023-10-31T07:45:39;1;1;
75946;PMS5003;64628;50.104;14.614;2023-10-31T07:48:04;3;1;
75946;PMS5003;64628;50.104;14.614;2023-10-31T07:50:29;3;2;
75946;PMS5003;64628;50.104;14.614;2023-10-31T07:52:54;2;2;
75946;PMS5003;64628;50.104;14.614;2023-10-31T07:55:20;3;3;
75946;PMS5003;64628;50.104;14.614;2023-10-31T07:57:45;2;2;
75946;PMS5003;64628;50.104;14.614;2023-10-31T08:00:11;2;1;
75946;PMS5003;64628;50.104;14.614;2023-10-31T08:02:35;2;2;
75946;PMS5003;64628;50.104;14.614;2023-10-31T08:05:01;1;1;
75946;PMS5003;64628;50.104;14.614;2023-10-31T08:07:26;1;1;
75946;PMS5003;64628;50.104;14.614;2023-10-31T08:09:51;1;1;
75946;PMS5003;64628;50.104;14.614;2023-10-31T08:12:16;46;46;
75946;PMS5003;64628;50.104;14.614;2023-10-31T08:14:41;4;3;
75946;PMS5003;64628;50.104;14.614;2023-10-31T08:17:07;4;3;
75946;PMS5003;64628;50.104;14.614;2023-10-31T08:19:32;2;2;
75946;PMS5003;64628;50.104;14.614;2023-10-31T08:21:57;1;1;
75946;PMS5003;64628;50.104;14.614;2023-10-31T08:24:22;3;2;
75946;PMS5003;64628;50.104;14.614;2023-10-31T08:26:48;4;2;
75946;PMS5003;64628;50.104;14.614;2023-10-31T08:29:13;20;20;
75946;PMS5003;64628;50.104;14.614;2023-10-31T08:31:38;18;18;
75946;PMS5003;64628;50.104;14.614;2023-10-31T08:34:03;16;14;
75946;PMS5003;64628;50.104;14.614;2023-10-31T08:36:29;19;19;
75946;PMS5003;64628;50.104;14.614;2023-10-31T08:38:54;21;20;
75946;PMS5003;64628;50.104;14.614;2023-10-31T08:41:19;3;2;
75946;PMS5003;64628;50.104;14.614;2023-10-31T08:43:44;2;2;
75946;PMS5003;64628;50.104;14.614;2023-10-31T08:46:10;3;1;
75946;PMS5003;64628;50.104;14.614;2023-10-31T08:48:35;2;2;
75946;PMS5003;64628;50.104;14.614;2023-10-31T08:51:00;1;1;
75946;PMS5003;64628;50.104;14.614;2023-10-31T08:53:25;2;2;
75946;PMS5003;64628;50.104;14.614;2023-10-31T08:55:51;2;1;
75946;PMS5003;64628;50.104;14.614;2023-10-31T08:58:16;1;1;
75946;PMS5003;64628;50.104;14.614;2023-10-31T09:00:41;1;1;
75946;PMS5003;64628;50.104;14.614;2023-10-31T09:03:07;0;0;
75946;PMS5003;64628;50.104;14.614;2023-10-31T09:05:32;1;1;
75946;PMS5003;64628;50.104;14.614;2023-10-31T09:07:57;2;2;
75946;PMS5003;64628;50.104;14.614;2023-10-31T09:10:22;2;2;
75946;PMS5003;64628;50.104;14.614;2023-10-31T09:12:47;3;3;
75946;PMS5003;64628;50.104;14.614;2023-10-31T09:15:13;2;2;
75946;PMS5003;64628;50.104;14.614;2023-10-31T09:17:38;2;2;
75946;PMS5003;64628;50.104;14.614;2023-10-31T09:20:04;2;2;
75946;PMS5003;64628;50.104;14.614;2023-10-31T09:22:28;2;2;
75946;PMS5003;64628;50.104;14.614;2023-10-31T09:24:54;3;2;
75946;PMS5003;64628;50.104;14.614;2023-10-31T09:27:19;4;2;
75946;PMS5003;64628;50.104;14.614;2023-10-31T09:29:44;3;2;
75946;PMS5003;64628;50.104;14.614;2023-10-31T09:32:09;1;1;
75946;PMS5003;64628;50.104;14.614;2023-10-31T09:34:35;3;1;
75946;PMS5003;64628;50.104;14.614;2023-10-31T09:37:00;4;3;
75946;PMS5003;64628;50.104;14.614;2023-10-31T09:39:25;2;2;
75946;PMS5003;64628;50.104;14.614;2023-10-31T09:41:50;1;1;
75946;PMS5003;64628;50.104;14.614;2023-10-31T09:44:15;1;1;
75946;PMS5003;64628;50.104;14.614;2023-10-31T09:46:41;2;2;
75946;PMS5003;64628;50.104;14.614;2023-10-31T09:49:06;3;3;
75946;PMS5003;64628;50.104;14.614;2023-10-31T09:51:31;3;3;
75946;PMS5003;64628;50.104;14.614;2023-10-31T09:53:56;2;2;
75946;PMS5003;64628;50.104;14.614;2023-10-31T09:56:22;3;3;
75946;PMS5003;64628;50.104;14.614;2023-10-31T09:58:47;4;4;
75946;PMS5003;64628;50.104;14.614;2023-10-31T10:01:12;2;2;
75946;PMS5003;64628;50.104;14.614;2023-10-31T10:03:37;2;2;
75946;PMS5003;64628;50.104;14.614;2023-10-31T10:06:03;2;2;
75946;PMS5003;64628;50.104;14.614;2023-10-31T10:08:28;6;5;
75946;PMS5003;64628;50.104;14.614;2023-10-31T10:10:53;3;3;
75946;PMS5003;64628;50.104;14.614;2023-10-31T10:13:19;3;3;
75946;PMS5003;64628;50.104;14.614;2023-10-31T10:15:44;2;2;
75946;PMS5003;64628;50.104;14.614;2023-10-31T10:18:08;2;2;
75946;PMS5003;64628;50.104;14.614;2023-10-31T10:20:34;2;2;
75946;PMS5003;64628;50.104;14.614;2023-10-31T10:23:02;1;1;
75946;PMS5003;64628;50.104;14.614;2023-10-31T10:25:24;1;1;
75946;PMS5003;64628;50.104;14.614;2023-10-31T10:27:49;2;2;
75946;PMS5003;64628;50.104;14.614;2023-10-31T10:30:14;2;1;
75946;PMS5003;64628;50.104;14.614;2023-10-31T10:32:39;2;2;
75946;PMS5003;64628;50.104;14.614;2023-10-31T10:35:05;2;2;
75946;PMS5003;64628;50.104;14.614;2023-10-31T10:37:30;2;1;
75946;PMS5003;64628;50.104;14.614;2023-10-31T10:39:55;1;1;
75946;PMS5003;64628;50.104;14.614;2023-10-31T10:42:21;3;3;
75946;PMS5003;64628;50.104;14.614;2023-10-31T10:44:45;5;5;
75946;PMS5003;64628;50.104;14.614;2023-10-31T10:47:12;20;19;
75946;PMS5003;64628;50.104;14.614;2023-10-31T10:49:36;2;2;
75946;PMS5003;64628;50.104;14.614;2023-10-31T10:52:04;3;3;
75946;PMS5003;64628;50.104;14.614;2023-10-31T10:54:29;4;4;
75946;PMS5003;64628;50.104;14.614;2023-10-31T10:56:53;3;3;
75946;PMS5003;64628;50.104;14.614;2023-10-31T10:59:18;3;3;
75946;PMS5003;64628;50.104;14.614;2023-10-31T11:01:42;4;4;
75946;PMS5003;64628;50.104;14.614;2023-10-31T11:04:07;5;5;
75946;PMS5003;64628;50.104;14.614;2023-10-31T11:06:32;5;5;
75946;PMS5003;64628;50.104;14.614;2023-10-31T11:08:57;7;7;
75946;PMS5003;64628;50.104;14.614;2023-10-31T11:11:23;11;11;
75946;PMS5003;64628;50.104;14.614;2023-10-31T11:13:48;31;31;
75946;PMS5003;64628;50.104;14.614;2023-10-31T11:16:16;22;22;
75946;PMS5003;64628;50.104;14.614;2023-10-31T11:18:39;7;7;
75946;PMS5003;64628;50.104;14.614;2023-10-31T11:21:04;10;10;
75946;PMS5003;64628;50.104;14.614;2023-10-31T11:23:29;11;11;
75946;PMS5003;64628;50.104;14.614;2023-10-31T11:25:54;11;11;
75946;PMS5003;64628;50.104;14.614;2023-10-31T11:28:19;30;28;
75946;PMS5003;64628;50.104;14.614;2023-10-31T11:30:45;7;7;
75946;PMS5003;64628;50.104;14.614;2023-10-31T11:33:12;6;6;
75946;PMS5003;64628;50.104;14.614;2023-10-31T11:35:36;6;6;
75946;PMS5003;64628;50.104;14.614;2023-10-31T11:38:01;3;3;
75946;PMS5003;64628;50.104;14.614;2023-10-31T11:40:26;5;5;
75946;PMS5003;64628;50.104;14.614;2023-10-31T11:42:52;2;2;
75946;PMS5003;64628;50.104;14.614;2023-10-31T11:45:25;3;2;
75946;PMS5003;64628;50.104;14.614;2023-10-31T11:47:45;5;4;
75946;PMS5003;64628;50.104;14.614;2023-10-31T11:50:07;4;2;
75946;PMS5003;64628;50.104;14.614;2023-10-31T11:52:32;3;3;
75946;PMS5003;64628;50.104;14.614;2023-10-31T11:54:57;2;2;
75946;PMS5003;64628;50.104;14.614;2023-10-31T11:57:26;1;1;
75946;PMS5003;64628;50.104;14.614;2023-10-31T11:59:48;2;2;
75946;PMS5003;64628;50.104;14.614;2023-10-31T12:02:13;3;3;
75946;PMS5003;64628;50.104;14.614;2023-10-31T12:04:38;2;2;
75946;PMS5003;64628;50.104;14.614;2023-10-31T12:07:03;3;3;
75946;PMS5003;64628;50.104;14.614;2023-10-31T12:09:29;3;3;
75946;PMS5003;64628;50.104;14.614;2023-10-31T12:11:54;3;2;
75946;PMS5003;64628;50.104;14.614;2023-10-31T12:14:19;3;3;
75946;PMS5003;64628;50.104;14.614;2023-10-31T12:16:44;4;4;
75946;PMS5003;64628;50.104;14.614;2023-10-31T12:19:10;2;2;
75946;PMS5003;64628;50.104;14.614;2023-10-31T12:21:36;2;2;
75946;PMS5003;64628;50.104;14.614;2023-10-31T12:24:02;2;2;
75946;PMS5003;64628;50.104;14.614;2023-10-31T12:26:26;3;3;
75946;PMS5003;64628;50.104;14.614;2023-10-31T12:28:50;3;3;
75946;PMS5003;64628;50.104;14.614;2023-10-31T12:31:16;4;3;
75946;PMS5003;64628;50.104;14.614;2023-10-31T12:33:41;2;2;
75946;PMS5003;64628;50.104;14.614;2023-10-31T12:36:07;3;3;
75946;PMS5003;64628;50.104;14.614;2023-10-31T12:38:32;3;2;
75946;PMS5003;64628;50.104;14.614;2023-10-31T12:40:57;2;2;
75946;PMS5003;64628;50.104;14.614;2023-10-31T12:43:22;6;3;
75946;PMS5003;64628;50.104;14.614;2023-10-31T12:45:47;3;2;
75946;PMS5003;64628;50.104;14.614;2023-10-31T12:48:12;2;2;
75946;PMS5003;64628;50.104;14.614;2023-10-31T12:50:38;3;2;
75946;PMS5003;64628;50.104;14.614;2023-10-31T12:53:03;2;1;
75946;PMS5003;64628;50.104;14.614;2023-10-31T12:55:28;1;1;
75946;PMS5003;64628;50.104;14.614;2023-10-31T12:57:54;2;2;
75946;PMS5003;64628;50.104;14.614;2023-10-31T13:00:19;3;2;
75946;PMS5003;64628;50.104;14.614;2023-10-31T13:02:44;2;2;
75946;PMS5003;64628;50.104;14.614;2023-10-31T13:05:10;2;2;
75946;PMS5003;64628;50.104;14.614;2023-10-31T13:07:34;5;3;
75946;PMS5003;64628;50.104;14.614;2023-10-31T13:10:00;3;3;
75946;PMS5003;64628;50.104;14.614;2023-10-31T13:12:25;3;3;
75946;PMS5003;64628;50.104;14.614;2023-10-31T13:14:50;4;4;
75946;PMS5003;64628;50.104;14.614;2023-10-31T13:17:15;6;5;
75946;PMS5003;64628;50.104;14.614;2023-10-31T13:19:41;3;3;
75946;PMS5003;64628;50.104;14.614;2023-10-31T13:22:06;3;3;
75946;PMS5003;64628;50.104;14.614;2023-10-31T13:24:31;3;3;
75946;PMS5003;64628;50.104;14.614;2023-10-31T13:26:57;4;4;
75946;PMS5003;64628;50.104;14.614;2023-10-31T13:29:22;2;2;
75946;PMS5003;64628;50.104;14.614;2023-10-31T13:31:47;3;3;
75946;PMS5003;64628;50.104;14.614;2023-10-31T13:34:12;5;3;
75946;PMS5003;64628;50.104;14.614;2023-10-31T13:36:37;2;2;
75946;PMS5003;64628;50.104;14.614;2023-10-31T13:39:03;2;2;
75946;PMS5003;64628;50.104;14.614;2023-10-31T13:41:28;3;3;
75946;PMS5003;64628;50.104;14.614;2023-10-31T13:43:53;5;3;
75946;PMS5003;64628;50.104;14.614;2023-10-31T13:46:19;6;5;
75946;PMS5003;64628;50.104;14.614;2023-10-31T13:48:44;4;3;
75946;PMS5003;64628;50.104;14.614;2023-10-31T13:51:10;3;3;
75946;PMS5003;64628;50.104;14.614;2023-10-31T13:53:35;3;3;
75946;PMS5003;64628;50.104;14.614;2023-10-31T13:56:00;3;3;
75946;PMS5003;64628;50.104;14.614;2023-10-31T13:58:25;4;2;
75946;PMS5003;64628;50.104;14.614;2023-10-31T14:00:51;4;2;
75946;PMS5003;64628;50.104;14.614;2023-10-31T14:03:16;3;3;
75946;PMS5003;64628;50.104;14.614;2023-10-31T14:05:41;4;4;
75946;PMS5003;64628;50.104;14.614;2023-10-31T14:08:06;3;3;
75946;PMS5003;64628;50.104;14.614;2023-10-31T14:10:32;2;2;
75946;PMS5003;64628;50.104;14.614;2023-10-31T14:12:57;3;1;
75946;PMS5003;64628;50.104;14.614;2023-10-31T14:15:22;9;5;
75946;PMS5003;64628;50.104;14.614;2023-10-31T14:17:47;3;3;
75946;PMS5003;64628;50.104;14.614;2023-10-31T14:20:13;3;3;
75946;PMS5003;64628;50.104;14.614;2023-10-31T14:22:38;5;3;
75946;PMS5003;64628;50.104;14.614;2023-10-31T14:25:03;3;3;
75946;PMS5003;64628;50.104;14.614;2023-10-31T14:27:28;4;3;
75946;PMS5003;64628;50.104;14.614;2023-10-31T14:29:54;4;3;
75946;PMS5003;64628;50.104;14.614;2023-10-31T14:32:19;3;3;
75946;PMS5003;64628;50.104;14.614;2023-10-31T14:34:44;3;3;
75946;PMS5003;64628;50.104;14.614;2023-10-31T14:37:09;3;2;
75946;PMS5003;64628;50.104;14.614;2023-10-31T14:39:35;4;3;
75946;PMS5003;64628;50.104;14.614;2023-10-31T14:42:00;2;2;
75946;PMS5003;64628;50.104;14.614;2023-10-31T14:44:25;5;5;
75946;PMS5003;64628;50.104;14.614;2023-10-31T14:46:50;4;4;
75946;PMS5003;64628;50.104;14.614;2023-10-31T14:49:16;4;4;
75946;PMS5003;64628;50.104;14.614;2023-10-31T14:51:41;2;2;
75946;PMS5003;64628;50.104;14.614;2023-10-31T14:54:06;5;4;
75946;PMS5003;64628;50.104;14.614;2023-10-31T14:56:31;4;3;
75946;PMS5003;64628;50.104;14.614;2023-10-31T14:58:57;10;9;
75946;PMS5003;64628;50.104;14.614;2023-10-31T15:01:23;2;2;
75946;PMS5003;64628;50.104;14.614;2023-10-31T15:03:48;3;3;
75946;PMS5003;64628;50.104;14.614;2023-10-31T15:06:13;5;4;
75946;PMS5003;64628;50.104;14.614;2023-10-31T15:08:38;4;4;
75946;PMS5003;64628;50.104;14.614;2023-10-31T15:11:04;2;2;
75946;PMS5003;64628;50.104;14.614;2023-10-31T15:13:29;12;9;
75946;PMS5003;64628;50.104;14.614;2023-10-31T15:15:54;3;3;
75946;PMS5003;64628;50.104;14.614;2023-10-31T15:18:19;5;4;
75946;PMS5003;64628;50.104;14.614;2023-10-31T15:20:45;3;2;
75946;PMS5003;64628;50.104;14.614;2023-10-31T15:23:10;4;3;
75946;PMS5003;64628;50.104;14.614;2023-10-31T15:25:35;3;3;
75946;PMS5003;64628;50.104;14.614;2023-10-31T15:28:01;4;3;
75946;PMS5003;64628;50.104;14.614;2023-10-31T15:30:26;2;2;
75946;PMS5003;64628;50.104;14.614;2023-10-31T15:32:51;3;3;
75946;PMS5003;64628;50.104;14.614;2023-10-31T15:35:16;4;2;
75946;PMS5003;64628;50.104;14.614;2023-10-31T15:37:42;3;3;
75946;PMS5003;64628;50.104;14.614;2023-10-31T15:40:07;2;2;
75946;PMS5003;64628;50.104;14.614;2023-10-31T15:42:32;3;3;
75946;PMS5003;64628;50.104;14.614;2023-10-31T15:44:57;4;3;
75946;PMS5003;64628;50.104;14.614;2023-10-31T15:47:23;3;3;
75946;PMS5003;64628;50.104;14.614;2023-10-31T15:49:49;4;4;
75946;PMS5003;64628;50.104;14.614;2023-10-31T15:52:14;4;4;
75946;PMS5003;64628;50.104;14.614;2023-10-31T15:54:39;2;2;
75946;PMS5003;64628;50.104;14.614;2023-10-31T15:57:06;9;5;
75946;PMS5003;64628;50.104;14.614;2023-10-31T15:59:30;9;6;
75946;PMS5003;64628;50.104;14.614;2023-10-31T16:01:55;9;8;
75946;PMS5003;64628;50.104;14.614;2023-10-31T16:04:21;8;5;
75946;PMS5003;64628;50.104;14.614;2023-10-31T16:06:46;7;7;